sensor_id;sensor_type;location;lat;lon;timestamp;P1;durP1;ratioP1;P2;durP2;ratioP2
60354;SDS011;46198;51.464;-0.066;2023-08-01T00:00:03;6.03;;;3.03;;
60354;SDS011;46198;51.464;-0.066;2023-08-01T00:02:37;5.03;;;2.75;;
60354;SDS011;46198;51.464;-0.066;2023-08-01T00:05:06;7.88;;;2.83;;
60354;SDS011;46198;51.464;-0.066;2023-08-01T00:07:34;9.13;;;3.03;;
60354;SDS011;46198;51.464;-0.066;2023-08-01T00:10:06;7.90;;;3.38;;
60354;SDS011;46198;51.464;-0.066;2023-08-01T00:12:34;10.68;;;3.17;;
60354;SDS011;46198;51.464;-0.066;2023-08-01T00:15:02;8.52;;;3.15;;
60354;SDS011;46198;51.464;-0.066;2023-08-01T00:17:32;11.10;;;3.55;;
60354;SDS011;46198;51.464;-0.066;2023-08-01T00:20:01;9.55;;;2.85;;
60354;SDS011;46198;51.464;-0.066;2023-08-01T00:22:30;8.65;;;2.95;;
60354;SDS011;46198;51.464;-0.066;2023-08-01T00:24:58;8.57;;;3.25;;
60354;SDS011;46198;51.464;-0.066;2023-08-01T00:27:27;11.77;;;3.35;;
60354;SDS011;46198;51.464;-0.066;2023-08-01T00:30:06;8.30;;;3.60;;
60354;SDS011;46198;51.464;-0.066;2023-08-01T00:32:35;11.73;;;3.85;;
60354;SDS011;46198;51.464;-0.066;2023-08-01T00:35:03;8.73;;;3.53;;
60354;SDS011;46198;51.464;-0.066;2023-08-01T00:37:32;7.38;;;3.55;;
60354;SDS011;46198;51.464;-0.066;2023-08-01T00:40:00;8.18;;;3.75;;
60354;SDS011;46198;51.464;-0.066;2023-08-01T00:42:29;9.98;;;3.67;;
60354;SDS011;46198;51.464;-0.066;2023-08-01T00:44:57;9.13;;;4.10;;
60354;SDS011;46198;51.464;-0.066;2023-08-01T00:47:27;12.63;;;3.90;;
60354;SDS011;46198;51.464;-0.066;2023-08-01T00:49:55;7.38;;;3.78;;
60354;SDS011;46198;51.464;-0.066;2023-08-01T00:52:23;9.80;;;3.75;;
60354;SDS011;46198;51.464;-0.066;2023-08-01T00:54:52;11.52;;;4.38;;
60354;SDS011;46198;51.464;-0.066;2023-08-01T00:57:20;8.23;;;3.70;;
60354;SDS011;46198;51.464;-0.066;2023-08-01T00:59:50;10.27;;;3.65;;
60354;SDS011;46198;51.464;-0.066;2023-08-01T01:02:18;8.02;;;3.70;;
60354;SDS011;46198;51.464;-0.066;2023-08-01T01:04:47;9.45;;;4.07;;
60354;SDS011;46198;51.464;-0.066;2023-08-01T01:07:15;18.27;;;4.78;;
60354;SDS011;46198;51.464;-0.066;2023-08-01T01:09:44;16.70;;;4.22;;
60354;SDS011;46198;51.464;-0.066;2023-08-01T01:12:13;8.35;;;3.70;;
60354;SDS011;46198;51.464;-0.066;2023-08-01T01:14:41;12.63;;;3.92;;
60354;SDS011;46198;51.464;-0.066;2023-08-01T01:17:10;11.18;;;4.30;;
60354;SDS011;46198;51.464;-0.066;2023-08-01T01:19:38;9.82;;;3.97;;
60354;SDS011;46198;51.464;-0.066;2023-08-01T01:22:08;9.45;;;3.63;;
60354;SDS011;46198;51.464;-0.066;2023-08-01T01:24:38;12.90;;;4.00;;
60354;SDS011;46198;51.464;-0.066;2023-08-01T01:27:08;11.65;;;4.82;;
60354;SDS011;46198;51.464;-0.066;2023-08-01T01:29:37;11.32;;;3.72;;
60354;SDS011;46198;51.464;-0.066;2023-08-01T01:32:07;12.82;;;3.95;;
60354;SDS011;46198;51.464;-0.066;2023-08-01T01:34:37;12.10;;;3.58;;
60354;SDS011;46198;51.464;-0.066;2023-08-01T01:37:05;8.70;;;3.35;;
60354;SDS011;46198;51.464;-0.066;2023-08-01T01:39:35;10.15;;;4.55;;
60354;SDS011;46198;51.464;-0.066;2023-08-01T01:42:03;10.85;;;3.70;;
60354;SDS011;46198;51.464;-0.066;2023-08-01T01:44:31;10.68;;;3.67;;
60354;SDS011;46198;51.464;-0.066;2023-08-01T01:47:00;10.07;;;3.85;;
60354;SDS011;46198;51.464;-0.066;2023-08-01T01:49:29;14.05;;;3.53;;
60354;SDS011;46198;51.464;-0.066;2023-08-01T01:51:57;11.27;;;5.15;;
60354;SDS011;46198;51.464;-0.066;2023-08-01T01:54:25;9.80;;;3.38;;
60354;SDS011;46198;51.464;-0.066;2023-08-01T01:56:55;13.70;;;3.65;;
60354;SDS011;46198;51.464;-0.066;2023-08-01T01:59:23;12.20;;;3.85;;
60354;SDS011;46198;51.464;-0.066;2023-08-01T02:01:51;16.83;;;4.10;;
60354;SDS011;46198;51.464;-0.066;2023-08-01T02:04:19;14.20;;;3.78;;
60354;SDS011;46198;51.464;-0.066;2023-08-01T02:06:48;13.23;;;3.60;;
60354;SDS011;46198;51.464;-0.066;2023-08-01T02:09:16;9.63;;;3.28;;
60354;SDS011;46198;51.464;-0.066;2023-08-01T02:11:44;12.18;;;3.65;;
60354;SDS011;46198;51.464;-0.066;2023-08-01T02:14:14;12.45;;;3.90;;
60354;SDS011;46198;51.464;-0.066;2023-08-01T02:16:42;9.82;;;3.65;;
60354;SDS011;46198;51.464;-0.066;2023-08-01T02:19:10;10.93;;;3.35;;
60354;SDS011;46198;51.464;-0.066;2023-08-01T02:21:38;12.15;;;3.17;;
60354;SDS011;46198;51.464;-0.066;2023-08-01T02:24:06;8.60;;;3.50;;
60354;SDS011;46198;51.464;-0.066;2023-08-01T02:26:34;9.82;;;3.50;;
60354;SDS011;46198;51.464;-0.066;2023-08-01T02:29:02;10.07;;;3.78;;
60354;SDS011;46198;51.464;-0.066;2023-08-01T02:31:32;8.07;;;3.30;;
60354;SDS011;46198;51.464;-0.066;2023-08-01T02:34:00;11.50;;;3.60;;
60354;SDS011;46198;51.464;-0.066;2023-08-01T02:36:28;8.70;;;4.00;;
60354;SDS011;46198;51.464;-0.066;2023-08-01T02:38:56;12.35;;;3.92;;
60354;SDS011;46198;51.464;-0.066;2023-08-01T02:41:24;6.30;;;3.22;;
60354;SDS011;46198;51.464;-0.066;2023-08-01T02:43:52;16.73;;;5.43;;
60354;SDS011;46198;51.464;-0.066;2023-08-01T02:46:20;10.35;;;3.60;;
60354;SDS011;46198;51.464;-0.066;2023-08-01T02:48:49;11.18;;;3.60;;
60354;SDS011;46198;51.464;-0.066;2023-08-01T02:51:17;9.27;;;3.55;;
60354;SDS011;46198;51.464;-0.066;2023-08-01T02:53:45;13.05;;;4.13;;
60354;SDS011;46198;51.464;-0.066;2023-08-01T02:56:13;13.30;;;4.75;;
60354;SDS011;46198;51.464;-0.066;2023-08-01T02:58:41;11.38;;;4.15;;
60354;SDS011;46198;51.464;-0.066;2023-08-01T03:01:09;16.38;;;3.83;;
60354;SDS011;46198;51.464;-0.066;2023-08-01T03:03:38;14.13;;;4.00;;
60354;SDS011;46198;51.464;-0.066;2023-08-01T03:06:09;11.68;;;3.88;;
60354;SDS011;46198;51.464;-0.066;2023-08-01T03:08:37;7.25;;;3.75;;
60354;SDS011;46198;51.464;-0.066;2023-08-01T03:11:06;9.48;;;3.70;;
60354;SDS011;46198;51.464;-0.066;2023-08-01T03:13:35;7.93;;;3.65;;
60354;SDS011;46198;51.464;-0.066;2023-08-01T03:16:03;13.52;;;3.75;;
60354;SDS011;46198;51.464;-0.066;2023-08-01T03:18:32;10.52;;;3.63;;
60354;SDS011;46198;51.464;-0.066;2023-08-01T03:21:00;12.10;;;4.18;;
60354;SDS011;46198;51.464;-0.066;2023-08-01T03:23:31;14.20;;;4.05;;
60354;SDS011;46198;51.464;-0.066;2023-08-01T03:25:59;12.35;;;3.92;;
60354;SDS011;46198;51.464;-0.066;2023-08-01T03:28:27;10.23;;;3.58;;
60354;SDS011;46198;51.464;-0.066;2023-08-01T03:30:55;9.82;;;4.20;;
60354;SDS011;46198;51.464;-0.066;2023-08-01T03:33:24;9.27;;;3.67;;
60354;SDS011;46198;51.464;-0.066;2023-08-01T03:35:53;12.50;;;5.50;;
60354;SDS011;46198;51.464;-0.066;2023-08-01T03:38:21;16.27;;;4.63;;
60354;SDS011;46198;51.464;-0.066;2023-08-01T03:40:50;8.77;;;3.58;;
60354;SDS011;46198;51.464;-0.066;2023-08-01T03:43:18;11.60;;;5.03;;
60354;SDS011;46198;51.464;-0.066;2023-08-01T03:45:50;11.80;;;3.80;;
60354;SDS011;46198;51.464;-0.066;2023-08-01T03:48:20;16.70;;;4.22;;
60354;SDS011;46198;51.464;-0.066;2023-08-01T03:50:49;11.50;;;3.47;;
60354;SDS011;46198;51.464;-0.066;2023-08-01T03:53:17;15.77;;;5.43;;
60354;SDS011;46198;51.464;-0.066;2023-08-01T03:55:46;11.52;;;3.42;;
60354;SDS011;46198;51.464;-0.066;2023-08-01T03:58:16;10.70;;;4.28;;
60354;SDS011;46198;51.464;-0.066;2023-08-01T04:00:44;11.30;;;3.72;;
60354;SDS011;46198;51.464;-0.066;2023-08-01T04:03:12;11.02;;;3.83;;
60354;SDS011;46198;51.464;-0.066;2023-08-01T04:05:40;12.38;;;4.00;;
60354;SDS011;46198;51.464;-0.066;2023-08-01T04:08:09;10.02;;;4.13;;
60354;SDS011;46198;51.464;-0.066;2023-08-01T04:10:37;9.10;;;3.95;;
60354;SDS011;46198;51.464;-0.066;2023-08-01T04:13:05;12.73;;;3.67;;
60354;SDS011;46198;51.464;-0.066;2023-08-01T04:15:34;14.73;;;4.35;;
60354;SDS011;46198;51.464;-0.066;2023-08-01T04:18:03;11.27;;;3.70;;
60354;SDS011;46198;51.464;-0.066;2023-08-01T04:20:31;13.15;;;4.13;;
60354;SDS011;46198;51.464;-0.066;2023-08-01T04:22:59;12.50;;;3.58;;
60354;SDS011;46198;51.464;-0.066;2023-08-01T04:25:27;15.73;;;3.83;;
60354;SDS011;46198;51.464;-0.066;2023-08-01T04:27:55;10.48;;;3.53;;
60354;SDS011;46198;51.464;-0.066;2023-08-01T04:30:23;14.43;;;3.50;;
60354;SDS011;46198;51.464;-0.066;2023-08-01T04:32:52;30.20;;;5.03;;
60354;SDS011;46198;51.464;-0.066;2023-08-01T04:35:20;10.63;;;3.17;;
60354;SDS011;46198;51.464;-0.066;2023-08-01T04:37:49;11.95;;;4.00;;
60354;SDS011;46198;51.464;-0.066;2023-08-01T04:40:17;12.10;;;3.33;;
60354;SDS011;46198;51.464;-0.066;2023-08-01T04:42:45;11.38;;;3.30;;
60354;SDS011;46198;51.464;-0.066;2023-08-01T04:45:13;12.88;;;3.70;;
60354;SDS011;46198;51.464;-0.066;2023-08-01T04:47:41;10.35;;;3.88;;
60354;SDS011;46198;51.464;-0.066;2023-08-01T04:50:11;11.13;;;3.25;;
60354;SDS011;46198;51.464;-0.066;2023-08-01T04:52:39;11.50;;;3.58;;
60354;SDS011;46198;51.464;-0.066;2023-08-01T04:55:07;9.07;;;3.35;;
60354;SDS011;46198;51.464;-0.066;2023-08-01T04:57:35;9.20;;;3.30;;
60354;SDS011;46198;51.464;-0.066;2023-08-01T05:00:03;9.38;;;3.35;;
60354;SDS011;46198;51.464;-0.066;2023-08-01T05:02:32;11.52;;;3.75;;
60354;SDS011;46198;51.464;-0.066;2023-08-01T05:05:00;11.32;;;4.90;;
60354;SDS011;46198;51.464;-0.066;2023-08-01T05:07:30;13.05;;;3.58;;
60354;SDS011;46198;51.464;-0.066;2023-08-01T05:09:58;14.23;;;3.60;;
60354;SDS011;46198;51.464;-0.066;2023-08-01T05:12:26;13.57;;;3.75;;
60354;SDS011;46198;51.464;-0.066;2023-08-01T05:14:54;7.60;;;3.15;;
60354;SDS011;46198;51.464;-0.066;2023-08-01T05:17:22;9.13;;;3.10;;
60354;SDS011;46198;51.464;-0.066;2023-08-01T05:19:50;11.20;;;4.30;;
60354;SDS011;46198;51.464;-0.066;2023-08-01T05:22:18;13.60;;;4.43;;
60354;SDS011;46198;51.464;-0.066;2023-08-01T05:24:48;11.35;;;3.08;;
60354;SDS011;46198;51.464;-0.066;2023-08-01T05:27:16;11.88;;;3.47;;
60354;SDS011;46198;51.464;-0.066;2023-08-01T05:29:44;12.73;;;3.92;;
60354;SDS011;46198;51.464;-0.066;2023-08-01T05:32:12;11.90;;;3.30;;
60354;SDS011;46198;51.464;-0.066;2023-08-01T05:34:40;13.82;;;3.33;;
60354;SDS011;46198;51.464;-0.066;2023-08-01T05:37:08;11.27;;;3.50;;
60354;SDS011;46198;51.464;-0.066;2023-08-01T05:39:36;7.53;;;3.20;;
60354;SDS011;46198;51.464;-0.066;2023-08-01T05:42:06;7.60;;;2.97;;
60354;SDS011;46198;51.464;-0.066;2023-08-01T05:44:35;13.05;;;4.88;;
60354;SDS011;46198;51.464;-0.066;2023-08-01T05:47:03;12.90;;;3.60;;
60354;SDS011;46198;51.464;-0.066;2023-08-01T05:49:31;8.82;;;2.97;;
60354;SDS011;46198;51.464;-0.066;2023-08-01T05:52:00;9.82;;;3.30;;
60354;SDS011;46198;51.464;-0.066;2023-08-01T05:54:28;9.43;;;3.10;;
60354;SDS011;46198;51.464;-0.066;2023-08-01T05:56:56;15.82;;;4.00;;
60354;SDS011;46198;51.464;-0.066;2023-08-01T05:59:26;8.05;;;2.92;;
60354;SDS011;46198;51.464;-0.066;2023-08-01T06:01:54;14.52;;;3.80;;
60354;SDS011;46198;51.464;-0.066;2023-08-01T06:04:22;12.98;;;3.25;;
60354;SDS011;46198;51.464;-0.066;2023-08-01T06:06:50;12.85;;;3.25;;
60354;SDS011;46198;51.464;-0.066;2023-08-01T06:09:18;7.80;;;3.00;;
60354;SDS011;46198;51.464;-0.066;2023-08-01T06:11:49;8.15;;;3.20;;
60354;SDS011;46198;51.464;-0.066;2023-08-01T06:14:17;9.93;;;3.33;;
60354;SDS011;46198;51.464;-0.066;2023-08-01T06:16:47;10.38;;;3.10;;
60354;SDS011;46198;51.464;-0.066;2023-08-01T06:19:15;9.32;;;2.90;;
60354;SDS011;46198;51.464;-0.066;2023-08-01T06:21:43;8.60;;;2.80;;
60354;SDS011;46198;51.464;-0.066;2023-08-01T06:24:11;9.98;;;3.17;;
60354;SDS011;46198;51.464;-0.066;2023-08-01T06:26:40;8.07;;;2.60;;
60354;SDS011;46198;51.464;-0.066;2023-08-01T06:29:08;7.00;;;2.78;;
60354;SDS011;46198;51.464;-0.066;2023-08-01T06:31:36;6.80;;;2.90;;
60354;SDS011;46198;51.464;-0.066;2023-08-01T06:34:06;9.65;;;3.20;;
60354;SDS011;46198;51.464;-0.066;2023-08-01T06:36:34;9.88;;;2.88;;
60354;SDS011;46198;51.464;-0.066;2023-08-01T06:39:02;8.50;;;2.78;;
60354;SDS011;46198;51.464;-0.066;2023-08-01T06:41:30;10.13;;;2.65;;
60354;SDS011;46198;51.464;-0.066;2023-08-01T06:43:58;6.78;;;2.80;;
60354;SDS011;46198;51.464;-0.066;2023-08-01T06:46:27;11.60;;;3.00;;
60354;SDS011;46198;51.464;-0.066;2023-08-01T06:48:55;5.75;;;2.60;;
60354;SDS011;46198;51.464;-0.066;2023-08-01T06:51:25;8.82;;;2.70;;
60354;SDS011;46198;51.464;-0.066;2023-08-01T06:53:53;7.63;;;2.80;;
60354;SDS011;46198;51.464;-0.066;2023-08-01T06:56:21;10.38;;;2.80;;
60354;SDS011;46198;51.464;-0.066;2023-08-01T06:58:49;8.00;;;2.85;;
60354;SDS011;46198;51.464;-0.066;2023-08-01T07:01:17;7.93;;;2.75;;
60354;SDS011;46198;51.464;-0.066;2023-08-01T07:03:49;13.82;;;3.05;;
60354;SDS011;46198;51.464;-0.066;2023-08-01T07:06:19;12.18;;;2.63;;
60354;SDS011;46198;51.464;-0.066;2023-08-01T07:08:48;7.13;;;2.33;;
60354;SDS011;46198;51.464;-0.066;2023-08-01T07:11:16;7.78;;;2.28;;
60354;SDS011;46198;51.464;-0.066;2023-08-01T07:13:45;9.48;;;3.30;;
60354;SDS011;46198;51.464;-0.066;2023-08-01T07:16:13;6.35;;;2.67;;
60354;SDS011;46198;51.464;-0.066;2023-08-01T07:18:42;9.38;;;2.30;;
60354;SDS011;46198;51.464;-0.066;2023-08-01T07:21:10;10.15;;;2.13;;
60354;SDS011;46198;51.464;-0.066;2023-08-01T07:23:38;7.40;;;2.15;;
60354;SDS011;46198;51.464;-0.066;2023-08-01T07:26:07;7.97;;;2.17;;
60354;SDS011;46198;51.464;-0.066;2023-08-01T07:28:37;8.43;;;2.92;;
60354;SDS011;46198;51.464;-0.066;2023-08-01T07:31:06;5.15;;;1.83;;
60354;SDS011;46198;51.464;-0.066;2023-08-01T07:33:35;7.25;;;2.03;;
60354;SDS011;46198;51.464;-0.066;2023-08-01T07:36:04;6.68;;;2.08;;
60354;SDS011;46198;51.464;-0.066;2023-08-01T07:38:33;9.10;;;2.13;;
60354;SDS011;46198;51.464;-0.066;2023-08-01T07:41:01;6.40;;;2.00;;
60354;SDS011;46198;51.464;-0.066;2023-08-01T07:43:32;4.18;;;1.77;;
60354;SDS011;46198;51.464;-0.066;2023-08-01T07:46:01;6.05;;;2.75;;
60354;SDS011;46198;51.464;-0.066;2023-08-01T07:48:29;9.18;;;2.08;;
60354;SDS011;46198;51.464;-0.066;2023-08-01T07:50:57;6.60;;;2.15;;
60354;SDS011;46198;51.464;-0.066;2023-08-01T07:53:25;5.70;;;1.80;;
60354;SDS011;46198;51.464;-0.066;2023-08-01T07:55:54;6.93;;;2.08;;
60354;SDS011;46198;51.464;-0.066;2023-08-01T07:58:23;6.10;;;1.60;;
60354;SDS011;46198;51.464;-0.066;2023-08-01T08:00:52;8.50;;;1.70;;
60354;SDS011;46198;51.464;-0.066;2023-08-01T08:03:20;6.80;;;1.88;;
60354;SDS011;46198;51.464;-0.066;2023-08-01T08:05:50;8.30;;;1.98;;
60354;SDS011;46198;51.464;-0.066;2023-08-01T08:08:18;5.10;;;1.55;;
60354;SDS011;46198;51.464;-0.066;2023-08-01T08:10:46;4.68;;;1.70;;
60354;SDS011;46198;51.464;-0.066;2023-08-01T08:13:14;5.13;;;1.55;;
60354;SDS011;46198;51.464;-0.066;2023-08-01T08:15:42;8.18;;;2.20;;
60354;SDS011;46198;51.464;-0.066;2023-08-01T08:18:12;2.90;;;1.40;;
60354;SDS011;46198;51.464;-0.066;2023-08-01T08:20:41;5.43;;;1.63;;
60354;SDS011;46198;51.464;-0.066;2023-08-01T08:23:10;5.95;;;1.77;;
60354;SDS011;46198;51.464;-0.066;2023-08-01T08:25:40;4.07;;;1.55;;
60354;SDS011;46198;51.464;-0.066;2023-08-01T08:28:09;3.92;;;1.30;;
60354;SDS011;46198;51.464;-0.066;2023-08-01T08:30:37;4.60;;;1.50;;
60354;SDS011;46198;51.464;-0.066;2023-08-01T08:33:06;5.03;;;1.73;;
60354;SDS011;46198;51.464;-0.066;2023-08-01T08:35:38;4.20;;;1.50;;
60354;SDS011;46198;51.464;-0.066;2023-08-01T08:38:06;7.10;;;1.85;;
60354;SDS011;46198;51.464;-0.066;2023-08-01T08:40:34;4.55;;;1.52;;
60354;SDS011;46198;51.464;-0.066;2023-08-01T08:43:08;2.90;;;0.98;;
60354;SDS011;46198;51.464;-0.066;2023-08-01T08:45:37;6.53;;;1.38;;
60354;SDS011;46198;51.464;-0.066;2023-08-01T08:48:09;2.00;;;1.00;;
60354;SDS011;46198;51.464;-0.066;2023-08-01T08:50:44;5.13;;;1.27;;
60354;SDS011;46198;51.464;-0.066;2023-08-01T08:53:13;3.08;;;1.55;;
60354;SDS011;46198;51.464;-0.066;2023-08-01T08:55:42;4.15;;;1.42;;
60354;SDS011;46198;51.464;-0.066;2023-08-01T08:58:10;5.18;;;1.40;;
60354;SDS011;46198;51.464;-0.066;2023-08-01T09:00:39;4.47;;;1.40;;
60354;SDS011;46198;51.464;-0.066;2023-08-01T09:03:07;6.60;;;1.67;;
60354;SDS011;46198;51.464;-0.066;2023-08-01T09:05:37;4.32;;;1.75;;
60354;SDS011;46198;51.464;-0.066;2023-08-01T09:08:15;3.33;;;0.90;;
60354;SDS011;46198;51.464;-0.066;2023-08-01T09:10:45;3.72;;;1.35;;
60354;SDS011;46198;51.464;-0.066;2023-08-01T09:13:14;7.15;;;1.60;;
60354;SDS011;46198;51.464;-0.066;2023-08-01T09:15:42;7.60;;;1.35;;
60354;SDS011;46198;51.464;-0.066;2023-08-01T09:18:11;9.98;;;3.17;;
60354;SDS011;46198;51.464;-0.066;2023-08-01T09:20:39;5.97;;;2.05;;
60354;SDS011;46198;51.464;-0.066;2023-08-01T09:23:09;5.72;;;1.83;;
60354;SDS011;46198;51.464;-0.066;2023-08-01T09:25:39;6.18;;;2.08;;
60354;SDS011;46198;51.464;-0.066;2023-08-01T09:28:17;6.45;;;1.50;;
60354;SDS011;46198;51.464;-0.066;2023-08-01T09:30:47;12.20;;;2.35;;
60354;SDS011;46198;51.464;-0.066;2023-08-01T09:33:17;4.20;;;1.65;;
60354;SDS011;46198;51.464;-0.066;2023-08-01T09:35:46;6.57;;;1.60;;
60354;SDS011;46198;51.464;-0.066;2023-08-01T09:38:14;7.05;;;1.50;;
60354;SDS011;46198;51.464;-0.066;2023-08-01T09:40:45;4.63;;;1.50;;
60354;SDS011;46198;51.464;-0.066;2023-08-01T09:43:15;6.68;;;1.65;;
60354;SDS011;46198;51.464;-0.066;2023-08-01T09:45:50;5.57;;;1.85;;
60354;SDS011;46198;51.464;-0.066;2023-08-01T09:48:22;5.63;;;1.60;;
60354;SDS011;46198;51.464;-0.066;2023-08-01T09:51:03;5.35;;;1.73;;
60354;SDS011;46198;51.464;-0.066;2023-08-01T09:53:32;5.53;;;1.47;;
60354;SDS011;46198;51.464;-0.066;2023-08-01T09:56:02;5.25;;;1.88;;
60354;SDS011;46198;51.464;-0.066;2023-08-01T09:58:31;2.87;;;1.00;;
60354;SDS011;46198;51.464;-0.066;2023-08-01T10:01:01;2.67;;;1.40;;
60354;SDS011;46198;51.464;-0.066;2023-08-01T10:03:29;6.20;;;1.90;;
60354;SDS011;46198;51.464;-0.066;2023-08-01T10:05:58;4.85;;;2.08;;
60354;SDS011;46198;51.464;-0.066;2023-08-01T10:08:26;5.00;;;2.08;;
60354;SDS011;46198;51.464;-0.066;2023-08-01T10:10:59;4.28;;;1.52;;
60354;SDS011;46198;51.464;-0.066;2023-08-01T10:13:32;4.07;;;1.25;;
60354;SDS011;46198;51.464;-0.066;2023-08-01T10:16:01;3.05;;;1.00;;
60354;SDS011;46198;51.464;-0.066;2023-08-01T10:18:29;7.47;;;1.20;;
60354;SDS011;46198;51.464;-0.066;2023-08-01T10:20:59;8.70;;;2.10;;
60354;SDS011;46198;51.464;-0.066;2023-08-01T10:23:28;5.35;;;1.50;;
60354;SDS011;46198;51.464;-0.066;2023-08-01T10:25:58;2.33;;;1.00;;
60354;SDS011;46198;51.464;-0.066;2023-08-01T10:28:32;4.90;;;1.38;;
60354;SDS011;46198;51.464;-0.066;2023-08-01T10:31:10;4.72;;;1.65;;
60354;SDS011;46198;51.464;-0.066;2023-08-01T10:33:39;7.00;;;1.50;;
60354;SDS011;46198;51.464;-0.066;2023-08-01T10:36:12;5.22;;;1.40;;
60354;SDS011;46198;51.464;-0.066;2023-08-01T10:38:44;2.78;;;1.13;;
60354;SDS011;46198;51.464;-0.066;2023-08-01T10:41:21;4.15;;;1.20;;
60354;SDS011;46198;51.464;-0.066;2023-08-01T10:43:51;9.27;;;1.48;;
60354;SDS011;46198;51.464;-0.066;2023-08-01T10:46:19;3.80;;;1.63;;
60354;SDS011;46198;51.464;-0.066;2023-08-01T10:48:48;6.57;;;2.35;;
60354;SDS011;46198;51.464;-0.066;2023-08-01T10:51:17;2.60;;;1.20;;
60354;SDS011;46198;51.464;-0.066;2023-08-01T10:53:45;7.10;;;2.20;;
60354;SDS011;46198;51.464;-0.066;2023-08-01T10:56:17;7.60;;;2.08;;
60354;SDS011;46198;51.464;-0.066;2023-08-01T10:58:46;4.70;;;2.10;;
60354;SDS011;46198;51.464;-0.066;2023-08-01T11:01:16;2.13;;;1.27;;
60354;SDS011;46198;51.464;-0.066;2023-08-01T11:03:44;5.18;;;1.30;;
60354;SDS011;46198;51.464;-0.066;2023-08-01T11:06:12;2.00;;;1.20;;
60354;SDS011;46198;51.464;-0.066;2023-08-01T11:08:41;4.55;;;1.23;;
60354;SDS011;46198;51.464;-0.066;2023-08-01T11:11:11;8.75;;;2.58;;
60354;SDS011;46198;51.464;-0.066;2023-08-01T11:13:49;9.18;;;2.63;;
60354;SDS011;46198;51.464;-0.066;2023-08-01T11:16:20;7.28;;;2.22;;
60354;SDS011;46198;51.464;-0.066;2023-08-01T11:18:48;5.15;;;1.98;;
60354;SDS011;46198;51.464;-0.066;2023-08-01T11:21:24;4.95;;;1.85;;
60354;SDS011;46198;51.464;-0.066;2023-08-01T11:23:53;5.53;;;1.65;;
60354;SDS011;46198;51.464;-0.066;2023-08-01T11:26:21;3.60;;;1.90;;
60354;SDS011;46198;51.464;-0.066;2023-08-01T11:28:50;2.60;;;1.30;;
60354;SDS011;46198;51.464;-0.066;2023-08-01T11:31:20;2.20;;;0.98;;
60354;SDS011;46198;51.464;-0.066;2023-08-01T11:33:54;4.13;;;1.10;;
60354;SDS011;46198;51.464;-0.066;2023-08-01T11:36:24;3.03;;;1.20;;
60354;SDS011;46198;51.464;-0.066;2023-08-01T11:38:55;5.53;;;2.22;;
60354;SDS011;46198;51.464;-0.066;2023-08-01T11:41:25;6.25;;;2.15;;
60354;SDS011;46198;51.464;-0.066;2023-08-01T11:43:54;3.13;;;1.20;;
60354;SDS011;46198;51.464;-0.066;2023-08-01T11:46:29;7.93;;;1.75;;
60354;SDS011;46198;51.464;-0.066;2023-08-01T11:48:58;7.53;;;2.58;;
60354;SDS011;46198;51.464;-0.066;2023-08-01T11:51:27;6.22;;;2.33;;
60354;SDS011;46198;51.464;-0.066;2023-08-01T11:53:59;4.20;;;1.85;;
60354;SDS011;46198;51.464;-0.066;2023-08-01T11:56:28;3.78;;;1.52;;
60354;SDS011;46198;51.464;-0.066;2023-08-01T11:58:57;3.60;;;1.00;;
60354;SDS011;46198;51.464;-0.066;2023-08-01T12:01:27;3.58;;;1.50;;
60354;SDS011;46198;51.464;-0.066;2023-08-01T12:03:56;7.03;;;2.92;;
60354;SDS011;46198;51.464;-0.066;2023-08-01T12:06:25;13.50;;;4.32;;
60354;SDS011;46198;51.464;-0.066;2023-08-01T12:08:53;3.58;;;1.85;;
60354;SDS011;46198;51.464;-0.066;2023-08-01T12:11:21;5.28;;;1.30;;
60354;SDS011;46198;51.464;-0.066;2023-08-01T12:14:00;8.25;;;2.00;;
60354;SDS011;46198;51.464;-0.066;2023-08-01T12:16:31;5.00;;;2.00;;
60354;SDS011;46198;51.464;-0.066;2023-08-01T12:18:59;2.20;;;0.98;;
60354;SDS011;46198;51.464;-0.066;2023-08-01T12:21:28;11.18;;;2.85;;
60354;SDS011;46198;51.464;-0.066;2023-08-01T12:23:56;5.70;;;2.35;;
60354;SDS011;46198;51.464;-0.066;2023-08-01T12:26:24;5.90;;;1.95;;
60354;SDS011;46198;51.464;-0.066;2023-08-01T12:28:53;4.57;;;1.50;;
60354;SDS011;46198;51.464;-0.066;2023-08-01T12:31:21;16.27;;;4.93;;
60354;SDS011;46198;51.464;-0.066;2023-08-01T12:33:51;5.38;;;1.75;;
60354;SDS011;46198;51.464;-0.066;2023-08-01T12:36:20;2.25;;;0.98;;
60354;SDS011;46198;51.464;-0.066;2023-08-01T12:38:49;3.67;;;1.20;;
60354;SDS011;46198;51.464;-0.066;2023-08-01T12:41:17;1.13;;;1.00;;
60354;SDS011;46198;51.464;-0.066;2023-08-01T12:43:45;3.53;;;1.02;;
60354;SDS011;46198;51.464;-0.066;2023-08-01T12:46:13;4.90;;;1.20;;
60354;SDS011;46198;51.464;-0.066;2023-08-01T12:48:43;2.47;;;1.50;;
60354;SDS011;46198;51.464;-0.066;2023-08-01T12:51:13;7.18;;;2.33;;
60354;SDS011;46198;51.464;-0.066;2023-08-01T12:53:41;2.50;;;1.00;;
60354;SDS011;46198;51.464;-0.066;2023-08-01T12:58:40;3.95;;;1.35;;
60354;SDS011;46198;51.464;-0.066;2023-08-01T13:01:08;2.40;;;1.27;;
60354;SDS011;46198;51.464;-0.066;2023-08-01T13:03:36;4.40;;;1.50;;
60354;SDS011;46198;51.464;-0.066;2023-08-01T13:06:04;5.88;;;2.35;;
60354;SDS011;46198;51.464;-0.066;2023-08-01T13:08:34;4.93;;;1.63;;
60354;SDS011;46198;51.464;-0.066;2023-08-01T13:11:08;3.30;;;1.55;;
60354;SDS011;46198;51.464;-0.066;2023-08-01T13:13:37;2.28;;;0.98;;
60354;SDS011;46198;51.464;-0.066;2023-08-01T13:16:05;5.43;;;1.70;;
60354;SDS011;46198;51.464;-0.066;2023-08-01T13:18:33;2.78;;;1.13;;
60354;SDS011;46198;51.464;-0.066;2023-08-01T13:21:01;1.63;;;1.20;;
60354;SDS011;46198;51.464;-0.066;2023-08-01T13:23:30;5.47;;;2.15;;
60354;SDS011;46198;51.464;-0.066;2023-08-01T13:25:59;3.45;;;1.20;;
60354;SDS011;46198;51.464;-0.066;2023-08-01T13:28:28;4.07;;;1.20;;
60354;SDS011;46198;51.464;-0.066;2023-08-01T13:30:56;3.53;;;1.20;;
60354;SDS011;46198;51.464;-0.066;2023-08-01T13:33:24;6.07;;;1.60;;
60354;SDS011;46198;51.464;-0.066;2023-08-01T13:35:52;4.35;;;1.55;;
60354;SDS011;46198;51.464;-0.066;2023-08-01T13:38:21;3.88;;;1.92;;
60354;SDS011;46198;51.464;-0.066;2023-08-01T13:40:49;2.55;;;1.13;;
60354;SDS011;46198;51.464;-0.066;2023-08-01T13:43:18;6.50;;;2.20;;
60354;SDS011;46198;51.464;-0.066;2023-08-01T13:45:46;2.42;;;1.10;;
60354;SDS011;46198;51.464;-0.066;2023-08-01T13:48:16;6.97;;;2.63;;
60354;SDS011;46198;51.464;-0.066;2023-08-01T13:50:44;5.47;;;1.35;;
60354;SDS011;46198;51.464;-0.066;2023-08-01T13:53:12;3.75;;;1.20;;
60354;SDS011;46198;51.464;-0.066;2023-08-01T13:55:40;4.40;;;1.45;;
60354;SDS011;46198;51.464;-0.066;2023-08-01T13:58:08;2.88;;;1.85;;
60354;SDS011;46198;51.464;-0.066;2023-08-01T14:00:38;3.55;;;1.33;;
60354;SDS011;46198;51.464;-0.066;2023-08-01T14:03:06;3.20;;;1.33;;
60354;SDS011;46198;51.464;-0.066;2023-08-01T14:05:34;2.90;;;1.30;;
60354;SDS011;46198;51.464;-0.066;2023-08-01T14:08:02;6.93;;;2.50;;
60354;SDS011;46198;51.464;-0.066;2023-08-01T14:10:30;7.95;;;2.50;;
60354;SDS011;46198;51.464;-0.066;2023-08-01T14:12:58;4.53;;;1.65;;
60354;SDS011;46198;51.464;-0.066;2023-08-01T14:15:26;4.18;;;1.42;;
60354;SDS011;46198;51.464;-0.066;2023-08-01T14:17:55;14.63;;;5.30;;
60354;SDS011;46198;51.464;-0.066;2023-08-01T14:20:23;11.17;;;4.17;;
60354;SDS011;46198;51.464;-0.066;2023-08-01T14:22:51;2.72;;;1.60;;
60354;SDS011;46198;51.464;-0.066;2023-08-01T14:25:19;2.70;;;1.42;;
60354;SDS011;46198;51.464;-0.066;2023-08-01T14:27:48;4.22;;;2.20;;
60354;SDS011;46198;51.464;-0.066;2023-08-01T14:30:16;4.18;;;1.80;;
60354;SDS011;46198;51.464;-0.066;2023-08-01T14:32:44;4.05;;;1.63;;
60354;SDS011;46198;51.464;-0.066;2023-08-01T14:35:13;5.32;;;1.90;;
60354;SDS011;46198;51.464;-0.066;2023-08-01T14:37:41;3.72;;;1.65;;
60354;SDS011;46198;51.464;-0.066;2023-08-01T14:40:14;10.23;;;2.20;;
60354;SDS011;46198;51.464;-0.066;2023-08-01T14:42:42;1.90;;;1.15;;